Time;durP1;ratioP1;P1;durP2;ratioP2;P2;SDS_P1;SDS_P2;PMS_P1;PMS_P2;Temp;Humidity;BMP_temperature;BMP_pressure;BME280_temperature;BME280_humidity;BME280_pressure;Samples;Min_cycle;Max_cycle;Signal;HPM_P1;HPM_P2
2022/11/18 00:01:17;;;;;;;15.23;8.68;;;6.30;99.90;;;;;;5099923;28;20020;-69
2022/11/18 00:03:45;;;;;;;14.82;8.77;;;6.30;99.90;;;;;;5100350;28;20016;-69
2022/11/18 00:06:19;;;;;;;13.82;9.25;;;6.30;99.90;;;;;;5100191;28;20024;-69
2022/11/18 00:08:47;;;;;;;14.52;8.13;;;6.30;99.90;;;;;;5100204;28;20020;-69
2022/11/18 00:14:18;;;;;;;16.77;8.85;;;6.40;99.90;;;;;;5100565;28;20030;-69
2022/11/18 00:16:48;;;;;;;15.65;8.75;;;6.40;99.90;;;;;;5100586;28;20020;-69
2022/11/18 00:19:15;;;;;;;16.27;9.70;;;6.40;99.90;;;;;;5099967;28;20017;-69
2022/11/18 00:21:42;;;;;;;14.40;8.88;;;6.40;99.90;;;;;;5100480;28;20039;-69
2022/11/18 00:24:10;;;;;;;13.77;8.10;;;6.40;99.90;;;;;;5100591;28;20086;-69
2022/11/18 00:26:37;;;;;;;13.55;8.65;;;6.40;99.90;;;;;;5100387;28;20099;-69
2022/11/18 00:29:04;;;;;;;12.57;8.13;;;6.40;99.90;;;;;;5081804;28;20016;-69
2022/11/18 00:31:31;;;;;;;14.68;9.02;;;6.40;99.90;;;;;;5100041;28;20090;-69
2022/11/18 00:33:59;;;;;;;17.58;8.93;;;6.50;99.90;;;;;;5100371;28;20020;-69
2022/11/18 00:36:27;;;;;;;13.10;8.32;;;6.50;99.90;;;;;;5099611;28;20028;-69
2022/11/18 00:38:54;;;;;;;14.60;9.00;;;6.50;99.90;;;;;;5100159;28;20024;-69
2022/11/18 00:41:22;;;;;;;15.10;9.57;;;6.50;99.90;;;;;;5100099;28;20027;-69
2022/11/18 00:43:49;;;;;;;14.23;9.15;;;6.50;99.90;;;;;;5100263;28;20020;-69
2022/11/18 00:46:17;;;;;;;16.95;9.50;;;6.50;99.90;;;;;;5100003;28;20024;-69
2022/11/18 00:48:44;;;;;;;16.45;8.57;;;6.50;99.90;;;;;;5099524;28;20031;-69
2022/11/18 00:51:15;;;;;;;13.45;8.80;;;6.50;99.90;;;;;;5081417;28;20035;-69
2022/11/18 00:53:43;;;;;;;14.10;8.45;;;6.50;99.90;;;;;;5078041;28;20040;-69
2022/11/18 00:56:10;;;;;;;16.52;9.57;;;6.50;99.90;;;;;;5078969;28;20051;-69
2022/11/18 00:58:38;;;;;;;14.98;9.50;;;6.50;99.90;;;;;;5079043;28;20013;-69
2022/11/18 01:01:05;;;;;;;15.93;9.00;;;6.50;99.90;;;;;;5078937;28;20020;-69
2022/11/18 01:03:33;;;;;;;15.43;9.43;;;6.50;99.90;;;;;;5079540;28;20118;-69
2022/11/18 01:06:00;;;;;;;15.52;9.55;;;6.50;99.90;;;;;;5078840;28;20082;-69
2022/11/18 01:08:28;;;;;;;13.85;8.88;;;6.60;99.90;;;;;;5078862;28;20039;-69
2022/11/18 01:13:17;;;;;;;17.50;10.38;;;6.60;99.90;;;;;;5077959;28;20379;-69
2022/11/18 01:13:43;;;;;;;15.23;9.50;;;6.60;99.90;;;;;;5078662;28;20025;-69
2022/11/18 01:16:10;;;;;;;17.77;8.93;;;6.60;99.90;;;;;;5078599;28;20028;-69
2022/11/18 01:18:38;;;;;;;19.73;9.30;;;6.60;99.90;;;;;;5078626;28;20328;-69
2022/11/18 01:21:06;;;;;;;15.48;9.30;;;6.60;99.90;;;;;;5077486;28;20021;-69
2022/11/18 01:23:33;;;;;;;16.52;10.20;;;6.60;99.90;;;;;;5078727;28;20074;-69
2022/11/18 01:26:06;;;;;;;17.85;9.82;;;6.60;99.90;;;;;;5078465;28;20048;-69
2022/11/18 01:28:33;;;;;;;17.33;10.05;;;6.60;99.90;;;;;;5078450;28;20021;-69
2022/11/18 01:31:05;;;;;;;17.58;10.00;;;6.60;99.90;;;;;;5078926;28;20078;-69
2022/11/18 01:33:33;;;;;;;17.25;10.27;;;6.60;99.90;;;;;;5078429;28;20024;-69
2022/11/18 01:36:01;;;;;;;18.63;10.05;;;6.60;99.90;;;;;;5077097;28;20109;-69
2022/11/18 01:38:28;;;;;;;17.58;9.95;;;6.60;99.90;;;;;;5078775;28;20452;-69
2022/11/18 01:40:56;;;;;;;19.73;10.63;;;6.60;99.90;;;;;;5078227;28;20408;-69
2022/11/18 01:43:24;;;;;;;16.30;9.80;;;6.70;99.90;;;;;;5078110;28;20070;-69
2022/11/18 01:45:55;;;;;;;19.60;10.05;;;6.60;99.90;;;;;;5078368;28;20021;-69
2022/11/18 01:48:33;;;;;;;19.65;10.38;;;6.70;99.90;;;;;;5076868;28;20119;-69
2022/11/18 01:51:05;;;;;;;19.02;10.10;;;6.60;99.90;;;;;;5078522;28;20043;-69
2022/11/18 01:53:41;;;;;;;15.85;8.93;;;6.60;99.90;;;;;;5081730;28;20077;-69
2022/11/18 01:56:18;;;;;;;16.88;9.80;;;6.60;99.90;;;;;;5098087;28;20024;-69
2022/11/18 01:58:55;;;;;;;16.73;9.70;;;6.60;99.90;;;;;;5098834;28;20028;-69
2022/11/18 02:01:23;;;;;;;15.20;9.65;;;6.60;99.90;;;;;;5098028;28;20031;-69
2022/11/18 02:03:52;;;;;;;18.25;10.80;;;6.60;99.90;;;;;;5097958;28;20055;-69
2022/11/18 02:06:20;;;;;;;19.63;11.18;;;6.60;99.90;;;;;;5098478;28;20036;-69
2022/11/18 02:08:48;;;;;;;23.05;12.05;;;6.60;99.90;;;;;;5098661;28;20031;-69
2022/11/18 02:14:05;;;;;;;18.67;10.23;;;6.60;99.90;;;;;;5098106;28;20035;-69
2022/11/18 02:16:53;;;;;;;16.63;9.48;;;6.60;99.90;;;;;;5097621;28;20368;-69
2022/11/18 02:19:36;;;;;;;15.32;9.10;;;6.60;99.90;;;;;;5053268;28;20042;-69
2022/11/18 02:22:24;;;;;;;15.50;8.95;;;6.50;99.90;;;;;;5097686;28;20031;-69
2022/11/18 02:25:10;;;;;;;16.52;8.90;;;6.50;99.90;;;;;;5079593;28;20365;-69
2022/11/18 02:28:01;;;;;;;17.23;8.50;;;6.50;99.90;;;;;;5098236;28;20020;-69
2022/11/18 02:30:37;;;;;;;17.95;9.40;;;6.50;99.90;;;;;;5098029;28;20412;-69
2022/11/18 02:33:18;;;;;;;20.98;9.15;;;6.50;99.90;;;;;;5097737;28;20357;-69
2022/11/18 02:36:13;;;;;;;19.48;8.27;;;6.50;99.90;;;;;;5097305;28;20104;-69
2022/11/18 02:38:49;;;;;;;18.65;8.27;;;6.50;99.90;;;;;;5098010;28;20069;-69
2022/11/18 02:41:23;;;;;;;15.43;8.90;;;6.50;99.90;;;;;;5097287;28;20021;-69
2022/11/18 02:44:03;;;;;;;15.80;9.02;;;6.50;99.90;;;;;;5097289;28;20701;-69
2022/11/18 02:46:37;;;;;;;14.70;8.25;;;6.40;99.90;;;;;;5097180;28;20030;-69
2022/11/18 02:49:12;;;;;;;16.45;9.13;;;6.40;99.90;;;;;;5097361;28;20074;-69
2022/11/18 02:51:41;;;;;;;15.73;8.18;;;6.30;99.90;;;;;;5097121;28;20016;-69
2022/11/18 02:54:10;;;;;;;18.08;8.52;;;6.30;99.90;;;;;;5096923;28;20047;-69
2022/11/18 02:56:37;;;;;;;18.63;9.23;;;6.30;99.90;;;;;;5097035;28;20028;-69
2022/11/18 02:59:04;;;;;;;21.08;9.40;;;6.30;99.90;;;;;;5097583;28;20012;-69
2022/11/18 03:01:34;;;;;;;17.30;9.55;;;6.30;99.90;;;;;;5078978;28;20020;-69
2022/11/18 03:04:02;;;;;;;16.23;9.48;;;6.30;99.90;;;;;;5097161;28;20044;-69
2022/11/18 03:06:34;;;;;;;17.48;9.70;;;6.30;99.90;;;;;;5097036;28;20062;-69
2022/11/18 03:09:05;;;;;;;14.02;8.32;;;6.30;99.90;;;;;;5097614;28;20030;-69
2022/11/18 03:11:44;;;;;;;16.23;9.40;;;6.30;99.90;;;;;;5078890;28;20031;-69
2022/11/18 03:14:32;;;;;;;14.43;8.25;;;6.30;99.90;;;;;;5097014;28;20028;-69
2022/11/18 03:17:31;;;;;;;16.40;9.50;;;6.30;99.90;;;;;;5097230;28;20370;-69
2022/11/18 03:20:16;;;;;;;19.52;10.25;;;6.30;99.90;;;;;;5008116;28;20451;-70
2022/11/18 03:23:11;;;;;;;15.50;9.18;;;6.30;99.90;;;;;;5097240;28;20024;-69
2022/11/18 03:25:57;;;;;;;18.38;9.52;;;6.30;99.90;;;;;;5078772;28;20370;-69
2022/11/18 03:28:44;;;;;;;19.40;9.27;;;6.30;99.90;;;;;;5097160;28;20032;-69
2022/11/18 03:31:28;;;;;;;15.85;9.15;;;6.20;99.90;;;;;;5078656;28;20266;-69
2022/11/18 03:34:09;;;;;;;19.08;9.10;;;6.30;99.90;;;;;;5078765;28;20027;-69
2022/11/18 03:36:45;;;;;;;17.05;8.70;;;6.20;99.90;;;;;;5101333;28;20020;-69
2022/11/18 03:39:14;;;;;;;17.98;9.75;;;6.20;99.90;;;;;;5101233;28;20161;-69
2022/11/18 03:41:54;;;;;;;18.17;9.13;;;6.20;99.90;;;;;;5101342;28;20099;-69
2022/11/18 03:44:30;;;;;;;18.25;9.25;;;6.20;99.90;;;;;;5100692;28;20427;-69
2022/11/18 03:47:04;;;;;;;16.38;8.27;;;6.20;99.90;;;;;;5101238;28;20023;-69
2022/11/18 03:49:39;;;;;;;13.63;8.38;;;6.20;99.90;;;;;;5100776;28;20107;-69
2022/11/18 03:52:13;;;;;;;16.35;9.13;;;6.20;99.90;;;;;;5082728;28;20016;-69
2022/11/18 03:54:45;;;;;;;15.90;8.50;;;6.10;99.90;;;;;;5100377;28;20512;-69
2022/11/18 03:57:35;;;;;;;19.05;8.70;;;6.20;99.90;;;;;;5100444;28;20416;-69
2022/11/18 04:00:09;;;;;;;15.35;8.88;;;6.10;99.90;;;;;;5100186;28;20424;-69
2022/11/18 04:02:38;;;;;;;18.17;8.63;;;6.10;99.90;;;;;;5082298;28;20024;-69
2022/11/18 04:05:08;;;;;;;14.95;7.88;;;6.10;99.90;;;;;;5081617;28;20074;-69
2022/11/18 04:07:46;;;;;;;16.60;8.75;;;6.10;99.90;;;;;;5082211;28;20366;-69
2022/11/18 04:10:17;;;;;;;17.27;9.50;;;6.10;99.90;;;;;;5082145;28;20028;-69
2022/11/18 04:13:20;;;;;;;17.10;9.65;;;6.10;99.90;;;;;;5082109;28;20027;-69
2022/11/18 04:15:48;;;;;;;18.10;8.55;;;6.10;99.90;;;;;;5100563;28;20408;-69
2022/11/18 04:18:15;;;;;;;17.02;9.27;;;6.10;99.90;;;;;;5081311;28;20021;-69
2022/11/18 04:20:42;;;;;;;15.60;8.35;;;6.10;99.90;;;;;;5100001;28;20062;-69
2022/11/18 04:23:10;;;;;;;15.30;8.68;;;6.00;99.90;;;;;;5100177;28;20022;-69
2022/11/18 04:25:37;;;;;;;14.35;7.97;;;6.00;99.90;;;;;;5099932;28;20024;-69
2022/11/18 04:28:04;;;;;;;16.05;8.13;;;6.00;99.90;;;;;;5100451;28;20027;-69
2022/11/18 04:30:32;;;;;;;14.55;8.63;;;6.00;99.90;;;;;;5100078;28;20388;-69
2022/11/18 04:32:59;;;;;;;17.83;8.65;;;6.00;99.90;;;;;;5099867;28;20483;-69
2022/11/18 04:35:27;;;;;;;18.23;8.63;;;6.00;99.90;;;;;;5099018;28;20032;-69
2022/11/18 04:37:54;;;;;;;12.77;7.10;;;6.00;99.90;;;;;;5100249;28;20048;-69
2022/11/18 04:40:22;;;;;;;15.82;8.82;;;6.00;99.90;;;;;;5100150;28;20016;-69
2022/11/18 04:42:49;;;;;;;18.45;9.10;;;5.90;99.90;;;;;;5099895;28;20375;-69
2022/11/18 04:45:16;;;;;;;16.00;9.07;;;5.90;99.90;;;;;;5100052;28;20354;-69
2022/11/18 04:47:44;;;;;;;19.13;8.73;;;5.90;99.90;;;;;;5081584;28;20470;-69
2022/11/18 04:50:11;;;;;;;20.17;8.70;;;5.90;99.90;;;;;;5099927;28;20031;-69
2022/11/18 04:52:38;;;;;;;15.73;7.95;;;5.90;99.90;;;;;;5099647;28;20020;-69
2022/11/18 04:55:06;;;;;;;18.20;8.25;;;5.90;99.90;;;;;;5077707;28;20144;-69
2022/11/18 04:57:33;;;;;;;18.08;9.50;;;5.90;99.90;;;;;;5079498;28;20023;-69
2022/11/18 05:00:01;;;;;;;18.20;7.85;;;5.80;99.90;;;;;;5079546;28;20070;-69
2022/11/18 05:02:28;;;;;;;16.02;8.07;;;5.80;99.90;;;;;;5077800;28;20111;-69
2022/11/18 05:04:55;;;;;;;15.27;7.80;;;5.80;99.90;;;;;;5078928;28;20020;-69
2022/11/18 05:07:22;;;;;;;14.15;7.60;;;5.80;99.90;;;;;;5079311;28;20029;-69
2022/11/18 05:09:50;;;;;;;13.57;6.57;;;5.80;99.90;;;;;;5077754;28;20032;-69
2022/11/18 05:15:02;;;;;;;13.77;7.60;;;5.80;99.90;;;;;;5078911;28;20451;-69
2022/11/18 05:17:30;;;;;;;12.00;6.90;;;5.80;99.90;;;;;;5079008;28;20365;-69
2022/11/18 05:19:57;;;;;;;12.13;6.80;;;5.80;99.90;;;;;;5078889;28;20021;-69
2022/11/18 05:22:25;;;;;;;12.43;6.35;;;5.80;99.90;;;;;;5078648;28;20017;-69
2022/11/18 05:24:52;;;;;;;12.98;6.60;;;5.70;99.90;;;;;;5077486;28;20020;-69
2022/11/18 05:27:19;;;;;;;11.52;6.60;;;5.80;99.90;;;;;;5078683;28;20024;-69
2022/11/18 05:29:46;;;;;;;9.88;5.68;;;5.70;99.90;;;;;;5078688;28;20029;-69
2022/11/18 05:32:14;;;;;;;9.52;5.78;;;5.80;99.90;;;;;;5078838;28;20071;-69
2022/11/18 05:34:42;;;;;;;7.85;4.93;;;5.80;99.90;;;;;;5077754;28;20032;-69
2022/11/18 05:37:10;;;;;;;10.25;5.18;;;5.70;99.90;;;;;;5078748;28;20017;-69
2022/11/18 05:39:37;;;;;;;7.97;4.85;;;5.70;99.90;;;;;;5078793;28;20344;-69
2022/11/18 05:44:51;;;;;;;9.13;5.35;;;5.70;99.90;;;;;;5078439;28;20023;-69
2022/11/18 05:47:18;;;;;;;8.23;4.75;;;5.80;99.90;;;;;;5077686;28;20044;-69
2022/11/18 05:49:46;;;;;;;10.27;4.80;;;5.80;99.90;;;;;;5078600;28;20477;-69
2022/11/18 05:52:13;;;;;;;10.95;5.30;;;5.70;99.90;;;;;;5078290;28;20028;-69
2022/11/18 05:54:49;;;;;;;9.88;4.95;;;5.70;99.90;;;;;;5090847;28;20039;-69
2022/11/18 05:57:17;;;;;;;11.03;5.10;;;5.80;99.90;;;;;;5097839;28;20088;-69
2022/11/18 05:59:44;;;;;;;9.88;5.03;;;5.80;99.90;;;;;;5098051;28;20238;-69
2022/11/18 06:02:20;;;;;;;10.52;5.57;;;5.70;99.90;;;;;;5079992;28;20024;-69
2022/11/18 06:04:59;;;;;;;10.52;5.80;;;5.70;99.90;;;;;;5098604;28;20020;-69
2022/11/18 06:07:43;;;;;;;13.20;5.13;;;5.70;99.90;;;;;;5080087;28;20073;-69
2022/11/18 06:10:25;;;;;;;10.35;5.00;;;5.70;99.90;;;;;;5097890;28;20031;-69
2022/11/18 06:13:01;;;;;;;10.20;5.55;;;5.70;99.90;;;;;;5079912;28;20024;-69
2022/11/18 06:15:35;;;;;;;9.13;5.00;;;5.70;99.90;;;;;;5097748;28;20107;-69
2022/11/18 06:18:23;;;;;;;11.52;6.03;;;5.70;99.90;;;;;;5097843;28;20024;-69
2022/11/18 06:20:53;;;;;;;15.10;7.18;;;5.70;99.90;;;;;;5098593;28;20307;-69
2022/11/18 06:23:20;;;;;;;11.90;6.95;;;5.70;99.90;;;;;;5098191;28;20031;-69
2022/11/18 06:25:48;;;;;;;17.42;8.38;;;5.60;99.90;;;;;;5080352;28;20119;-69
2022/11/18 06:28:17;;;;;;;16.75;7.95;;;5.60;99.90;;;;;;5098041;28;20432;-69
2022/11/18 06:30:44;;;;;;;15.93;8.65;;;5.50;99.90;;;;;;5097496;28;20039;-69
2022/11/18 06:33:11;;;;;;;15.88;8.13;;;5.50;99.90;;;;;;5097462;28;20048;-69
2022/11/18 06:35:38;;;;;;;16.30;8.80;;;5.50;99.90;;;;;;5097312;28;20328;-69
2022/11/18 06:38:06;;;;;;;20.13;9.20;;;5.50;99.90;;;;;;5097792;28;20316;-69
2022/11/18 06:40:36;;;;;;;15.23;8.90;;;5.40;99.90;;;;;;5097342;28;20021;-69
2022/11/18 06:48:43;;;;;;;19.33;9.77;;;5.40;99.90;;;;;;5097223;28;20397;-69
2022/11/18 06:51:10;;;;;;;22.35;10.68;;;5.40;99.90;;;;;;5096951;28;20047;-69
2022/11/18 06:53:38;;;;;;;20.60;10.25;;;5.30;99.90;;;;;;5075550;28;20082;-69
2022/11/18 06:56:11;;;;;;;18.10;8.73;;;5.40;99.90;;;;;;5077248;28;20029;-70
2022/11/18 06:58:39;;;;;;;21.48;10.18;;;5.30;99.90;;;;;;5077517;28;20312;-69
2022/11/18 07:01:11;;;;;;;19.33;9.85;;;5.30;99.90;;;;;;5076747;28;20099;-68
2022/11/18 07:03:40;;;;;;;21.95;10.02;;;5.30;99.90;;;;;;5076652;28;20027;-68
2022/11/18 07:06:08;;;;;;;23.33;10.07;;;5.30;99.90;;;;;;5076620;28;20103;-68
2022/11/18 07:08:37;;;;;;;20.33;10.48;;;5.30;99.90;;;;;;5075116;28;20377;-68
2022/11/18 07:11:07;;;;;;;25.05;11.35;;;5.30;99.90;;;;;;5076420;28;20024;-70
2022/11/18 07:13:35;;;;;;;17.45;8.98;;;5.30;99.90;;;;;;5077199;28;20094;-70
2022/11/18 07:16:15;;;;;;;17.50;8.93;;;5.30;99.90;;;;;;5077033;28;20021;-71
2022/11/18 07:18:44;;;;;;;20.70;9.40;;;5.30;99.90;;;;;;5077439;28;20471;-72
2022/11/18 07:21:14;;;;;;;20.90;9.27;;;5.20;99.90;;;;;;5075445;28;20032;-71
2022/11/18 07:23:42;;;;;;;17.45;8.40;;;5.20;99.90;;;;;;5077033;28;20021;-73
2022/11/18 07:26:11;;;;;;;20.67;9.57;;;5.20;99.90;;;;;;5075941;28;20036;-74
2022/11/18 07:28:38;;;;;;;18.67;9.52;;;5.30;99.90;;;;;;5076652;28;20463;-71
2022/11/18 07:31:11;;;;;;;18.85;9.02;;;5.20;99.90;;;;;;5076987;28;20099;-74
2022/11/18 07:33:40;;;;;;;19.48;8.95;;;5.30;99.90;;;;;;5076372;28;20024;-77
2022/11/18 07:36:11;;;;;;;17.30;9.50;;;5.20;99.90;;;;;;5076279;28;20029;-74
2022/11/18 07:38:39;;;;;;;19.02;8.68;;;5.20;99.90;;;;;;5076846;28;20021;-76
2022/11/18 07:41:09;;;;;;;16.83;7.82;;;5.30;99.90;;;;;;5075231;28;20020;-75
2022/11/18 07:43:37;;;;;;;17.90;7.85;;;5.30;99.90;;;;;;5075275;28;20074;-74
2022/11/18 07:46:13;;;;;;;18.98;8.15;;;5.20;99.90;;;;;;5075171;28;20387;-75
2022/11/18 07:48:42;;;;;;;17.70;7.90;;;5.30;99.90;;;;;;5076355;28;20028;-74
2022/11/18 07:51:10;;;;;;;15.77;7.97;;;5.30;99.90;;;;;;5074462;28;20032;-74
2022/11/18 07:53:37;;;;;;;20.38;8.07;;;5.30;99.90;;;;;;5080045;28;20043;-74
2022/11/18 07:56:05;;;;;;;20.27;8.10;;;5.30;99.90;;;;;;5078406;28;20467;-74
2022/11/18 07:58:32;;;;;;;16.33;7.85;;;5.30;99.90;;;;;;5097084;28;20020;-73
2022/11/18 08:01:14;;;;;;;15.48;7.40;;;5.30;99.90;;;;;;5096892;28;20024;-74
2022/11/18 08:03:44;;;;;;;16.65;7.97;;;5.30;99.90;;;;;;5096252;28;20451;-74
2022/11/18 08:06:13;;;;;;;18.35;7.90;;;5.30;99.90;;;;;;5096276;28;20024;-71
2022/11/18 08:08:41;;;;;;;15.60;7.68;;;5.40;99.90;;;;;;5078462;28;20115;-75
2022/11/18 08:11:11;;;;;;;15.18;7.70;;;5.40;99.90;;;;;;5096198;28;20416;-76
2022/11/18 08:13:39;;;;;;;19.48;9.38;;;5.40;99.90;;;;;;5078314;28;20070;-78
2022/11/18 08:16:14;;;;;;;14.65;8.05;;;5.40;99.90;;;;;;5096684;28;20020;-75
2022/11/18 08:18:41;;;;;;;19.33;8.88;;;5.40;99.90;;;;;;5096465;28;20066;-75
2022/11/18 08:21:12;;;;;;;16.55;8.73;;;5.50;99.90;;;;;;5098178;28;20408;-73
2022/11/18 08:23:40;;;;;;;18.67;9.00;;;5.50;99.90;;;;;;5082162;28;20424;-74
2022/11/18 08:26:16;;;;;;;20.13;10.35;;;5.50;99.90;;;;;;5100192;28;20017;-72
2022/11/18 08:28:45;;;;;;;22.35;10.60;;;5.50;99.90;;;;;;5100239;28;20112;-73
2022/11/18 08:31:19;;;;;;;17.88;9.95;;;5.50;99.90;;;;;;5099779;28;20056;-74
2022/11/18 08:33:47;;;;;;;18.95;9.77;;;5.50;99.90;;;;;;5099725;28;20412;-76
2022/11/18 08:36:26;;;;;;;20.35;9.82;;;5.50;99.90;;;;;;5081658;28;20078;-72
2022/11/18 08:38:59;;;;;;;16.67;8.90;;;5.60;99.90;;;;;;5100144;28;20079;-72
2022/11/18 08:41:42;;;;;;;19.42;9.23;;;5.60;99.90;;;;;;5099920;28;20020;-72
2022/11/18 08:44:14;;;;;;;18.42;9.43;;;5.60;99.90;;;;;;5099612;28;20081;-72
2022/11/18 08:46:44;;;;;;;15.95;8.75;;;5.60;99.90;;;;;;5081550;28;20024;-71
2022/11/18 08:49:12;;;;;;;17.10;8.88;;;5.60;99.90;;;;;;5099571;28;20328;-71
2022/11/18 08:51:39;;;;;;;17.75;9.80;;;5.60;99.90;;;;;;5099995;28;20094;-71
2022/11/18 08:54:07;;;;;;;18.05;9.10;;;5.60;99.90;;;;;;5099580;28;20432;-70
2022/11/18 08:56:34;;;;;;;21.65;10.40;;;5.60;99.90;;;;;;5099275;28;20039;-71
2022/11/18 08:59:02;;;;;;;21.05;11.35;;;5.60;99.90;;;;;;5099371;28;20054;-71
2022/11/18 09:01:29;;;;;;;22.50;10.38;;;5.70;99.90;;;;;;5099220;28;20020;-72
2022/11/18 09:03:57;;;;;;;22.60;11.10;;;5.60;99.90;;;;;;5099120;28;20401;-72
2022/11/18 09:06:25;;;;;;;25.13;11.70;;;5.60;99.90;;;;;;5099469;28;20373;-72
2022/11/18 09:08:53;;;;;;;22.30;10.38;;;5.60;99.90;;;;;;5081284;28;20020;-71
2022/11/18 09:11:23;;;;;;;21.60;10.50;;;5.50;99.90;;;;;;5099003;28;20024;-71
2022/11/18 09:14:01;;;;;;;25.70;10.90;;;5.50;99.90;;;;;;5099295;28;20328;-72
2022/11/18 09:16:30;;;;;;;21.33;10.68;;;5.50;99.90;;;;;;5080882;28;20034;-72
2022/11/18 09:18:59;;;;;;;17.85;8.65;;;5.50;99.90;;;;;;5099027;28;20017;-72
2022/11/18 09:21:27;;;;;;;15.10;7.75;;;5.40;99.90;;;;;;5098893;28;20020;-72
2022/11/18 09:23:54;;;;;;;16.70;9.48;;;5.40;99.90;;;;;;5099110;28;20020;-72
2022/11/18 09:26:23;;;;;;;14.38;8.35;;;5.40;99.90;;;;;;5099294;28;20024;-72
2022/11/18 09:28:55;;;;;;;13.80;7.68;;;5.40;99.90;;;;;;5099439;28;20111;-72
2022/11/18 09:31:23;;;;;;;14.18;7.53;;;5.40;99.90;;;;;;5080408;28;20107;-72
2022/11/18 09:33:50;;;;;;;15.02;8.32;;;5.40;99.90;;;;;;5080059;28;20120;-72
2022/11/18 09:36:23;;;;;;;18.92;8.25;;;5.40;99.90;;;;;;5080475;28;20119;-71
2022/11/18 09:38:51;;;;;;;11.73;7.18;;;5.40;99.90;;;;;;5099178;28;20020;-72
2022/11/18 09:41:54;;;;;;;12.30;7.35;;;5.40;99.90;;;;;;5098432;28;20016;-72
2022/11/18 09:44:57;;;;;;;14.18;7.50;;;5.40;99.90;;;;;;4996968;28;20026;-71
2022/11/18 09:47:33;;;;;;;11.70;6.90;;;5.40;99.90;;;;;;5098952;28;20308;-70
2022/11/18 09:50:11;;;;;;;13.95;8.30;;;5.30;99.90;;;;;;5098797;28;20020;-71
2022/11/18 09:53:00;;;;;;;13.73;7.25;;;5.30;99.90;;;;;;5098280;28;20108;-70
2022/11/18 09:55:28;;;;;;;14.43;7.50;;;5.30;99.90;;;;;;5097920;28;20046;-73
2022/11/18 09:57:58;;;;;;;13.13;7.22;;;5.30;99.90;;;;;;5098848;28;20069;-73
2022/11/18 10:00:29;;;;;;;15.35;6.93;;;5.30;99.90;;;;;;5098635;28;20020;-73
2022/11/18 10:03:30;;;;;;;14.35;7.80;;;5.30;99.90;;;;;;5097996;28;20431;-70
2022/11/18 10:06:20;;;;;;;15.15;8.50;;;5.20;99.90;;;;;;5026801;28;20161;-70
2022/11/18 10:09:05;;;;;;;13.43;7.60;;;5.20;99.90;;;;;;5098395;28;20428;-71
2022/11/18 10:11:44;;;;;;;16.27;7.72;;;5.20;99.90;;;;;;5098177;28;20020;-71
2022/11/18 10:14:32;;;;;;;17.65;7.95;;;5.20;99.90;;;;;;5097822;28;20016;-71
2022/11/18 10:17:10;;;;;;;14.38;7.25;;;5.20;99.90;;;;;;5079846;28;20027;-71
2022/11/18 10:20:07;;;;;;;13.68;7.28;;;5.20;99.90;;;;;;5097972;28;20032;-71
2022/11/18 10:23:03;;;;;;;14.32;8.25;;;5.20;99.90;;;;;;5098253;28;20389;-72
2022/11/18 10:25:31;;;;;;;13.70;8.65;;;5.10;99.90;;;;;;5097881;28;20042;-72
2022/11/18 10:28:24;;;;;;;15.85;8.52;;;5.10;99.90;;;;;;5097716;28;20059;-71
2022/11/18 10:30:52;;;;;;;17.73;8.73;;;5.00;99.90;;;;;;5097508;28;20032;-71
2022/11/18 10:33:24;;;;;;;16.02;8.50;;;5.10;99.90;;;;;;5097416;28;20439;-71
2022/11/18 10:36:08;;;;;;;16.50;8.50;;;5.00;99.90;;;;;;5079335;28;20032;-71
2022/11/18 10:38:36;;;;;;;13.88;8.07;;;5.00;99.90;;;;;;5079405;28;20387;-73
2022/11/18 10:41:06;;;;;;;16.83;9.02;;;5.00;99.90;;;;;;5097547;28;20027;-72
2022/11/18 10:43:49;;;;;;;23.30;10.70;;;5.00;99.90;;;;;;5097613;28;20063;-72
2022/11/18 10:46:38;;;;;;;29.13;11.60;;;5.00;99.90;;;;;;5097779;28;20020;-73
2022/11/18 10:49:15;;;;;;;18.13;8.63;;;5.00;99.90;;;;;;5097119;28;20044;-72
2022/11/18 10:51:48;;;;;;;19.27;9.35;;;4.90;99.90;;;;;;5097322;28;20432;-73
2022/11/18 10:54:18;;;;;;;18.00;10.15;;;4.90;99.90;;;;;;5097239;28;20040;-72
2022/11/18 10:57:06;;;;;;;18.73;9.35;;;4.90;99.90;;;;;;5079096;28;20036;-73
2022/11/18 10:59:37;;;;;;;21.92;10.88;;;4.80;99.90;;;;;;5079117;28;20024;-73
2022/11/18 11:02:32;;;;;;;19.75;9.75;;;4.80;99.90;;;;;;5097340;28;20020;-73
2022/11/18 11:05:15;;;;;;;18.92;9.20;;;4.80;99.90;;;;;;5079052;28;20078;-73
2022/11/18 11:07:42;;;;;;;18.75;9.13;;;4.70;99.90;;;;;;5078967;28;20481;-73
2022/11/18 11:10:13;;;;;;;18.30;8.63;;;4.70;99.90;;;;;;5097391;28;20028;-73
2022/11/18 11:12:47;;;;;;;17.40;8.88;;;4.70;99.90;;;;;;5079060;28;20032;-72
2022/11/18 11:15:39;;;;;;;17.63;8.18;;;4.60;99.90;;;;;;5096724;28;20028;-71
2022/11/18 11:21:26;;;;;;;15.93;8.43;;;4.60;99.90;;;;;;5097306;28;20320;-71
2022/11/18 11:23:53;;;;;;;17.65;7.75;;;4.60;99.90;;;;;;5096834;28;20062;-77
2022/11/18 11:27:11;;;;;;;14.43;8.20;;;4.60;99.90;;;;;;5096665;28;20024;-75
2022/11/18 11:29:56;;;;;;;;;;;4.60;99.90;;;;;;5078381;28;20040;-74
2022/11/18 11:32:35;;;;;;;12.70;6.70;;;4.60;99.90;;;;;;5096988;28;19904;-75
2022/11/18 11:35:22;;;;;;;13.95;7.57;;;4.50;99.90;;;;;;5097048;28;20024;-74
2022/11/18 11:38:07;;;;;;;;;;;4.50;99.90;;;;;;5097334;28;20047;-73
2022/11/18 11:40:49;;;;;;;19.20;7.35;;;4.50;99.90;;;;;;5078614;28;20278;-74
2022/11/18 11:43:44;;;;;;;14.95;7.82;;;4.40;99.90;;;;;;5097019;28;20016;-74
2022/11/18 11:46:29;;;;;;;14.35;7.18;;;4.40;99.90;;;;;;5096750;28;20435;-71
2022/11/18 11:49:18;;;;;;;14.40;7.03;;;4.40;99.90;;;;;;5096541;28;20055;-77
2022/11/18 11:51:59;;;;;;;12.85;7.13;;;4.30;99.90;;;;;;5096640;28;20016;-73
2022/11/18 11:54:33;;;;;;;13.90;6.78;;;4.30;99.90;;;;;;5074927;28;20444;-73
2022/11/18 11:57:32;;;;;;;16.67;7.88;;;4.30;99.90;;;;;;5078693;28;20087;-75
2022/11/18 12:00:05;;;;;;;16.05;8.88;;;4.30;99.90;;;;;;5079115;28;20025;-76
2022/11/18 12:02:51;;;;;;;19.83;8.82;;;4.30;99.90;;;;;;5080412;28;20337;-75
2022/11/18 12:05:38;;;;;;;14.15;7.38;;;4.30;99.90;;;;;;5079017;28;20155;-74
2022/11/18 12:08:30;;;;;;;16.95;8.90;;;4.20;99.90;;;;;;5080030;28;20039;-71
2022/11/18 12:11:07;;;;;;;15.13;7.95;;;4.20;99.90;;;;;;5080210;28;20107;-71
2022/11/18 12:13:36;;;;;;;;;;;4.10;99.90;;;;;;5080834;28;20028;-72
2022/11/18 12:16:18;;;;;;;11.88;6.45;;;4.10;99.90;;;;;;5078615;28;19915;-70
2022/11/18 12:19:21;;;;;;;40.25;17.63;;;4.00;99.90;;;;;;5079850;28;20024;-71
2022/11/18 12:22:04;;;;;;;39.35;17.98;;;3.90;99.90;;;;;;5078020;28;20051;-71
2022/11/18 12:24:37;;;;;;;20.40;10.85;;;3.90;99.90;;;;;;5079808;28;20027;-71
2022/11/18 12:27:29;;;;;;;18.33;7.53;;;3.90;99.90;;;;;;5078569;28;20028;-71
2022/11/18 12:30:02;;;;;;;14.75;7.30;;;3.80;99.90;;;;;;5080194;28;20044;-70
2022/11/18 12:32:45;;;;;;;16.30;8.18;;;3.90;99.90;;;;;;5080003;28;20044;-71
2022/11/18 12:35:13;;;;;;;14.70;7.28;;;3.80;99.90;;;;;;5079729;28;20030;-71
2022/11/18 12:37:57;;;;;;;14.57;6.68;;;3.80;99.90;;;;;;5078444;28;20436;-71
2022/11/18 12:40:43;;;;;;;14.20;7.95;;;3.80;99.90;;;;;;5079411;28;20047;-70
2022/11/18 12:46:34;;;;;;;11.80;6.95;;;3.80;99.90;;;;;;5079314;28;20455;-70
2022/11/18 12:49:23;;;;;;;12.75;7.63;;;3.80;99.90;;;;;;5078147;28;20025;-71
2022/11/18 12:51:55;;;;;;;18.27;8.10;;;3.80;99.90;;;;;;5078336;28;20339;-71
2022/11/18 12:54:37;;;;;;;19.60;9.85;;;3.80;99.90;;;;;;5088996;28;20043;-71
2022/11/18 12:57:17;;;;;;;14.43;8.00;;;3.70;99.90;;;;;;5081457;28;20074;-71
2022/11/18 12:59:45;;;;;;;14.90;8.10;;;3.70;99.90;;;;;;5099893;28;20050;-71
2022/11/18 13:02:21;;;;;;;14.35;7.60;;;3.70;99.90;;;;;;5099511;28;20023;-71
2022/11/18 13:05:11;;;;;;;16.65;7.53;;;3.70;99.90;;;;;;5099290;28;20324;-71
2022/11/18 13:10:44;;;;;;;15.57;8.23;;;3.70;99.90;;;;;;5099428;28;20019;-71
2022/11/18 13:13:32;;;;;;;16.10;7.53;;;3.60;99.90;;;;;;5099266;28;20021;-71
2022/11/18 13:19:07;;;;;;;20.20;8.75;;;3.70;99.90;;;;;;5099473;28;20339;-71
2022/11/18 13:24:22;;;;;;;12.90;6.15;;;3.70;99.90;;;;;;5099191;28;20492;-71
2022/11/18 13:26:55;;;;;;;23.23;9.38;;;3.70;99.90;;;;;;5098820;28;20477;-71
2022/11/18 13:29:35;;;;;;;15.70;7.38;;;3.70;99.90;;;;;;5099052;28;20020;-71
2022/11/18 13:32:21;;;;;;;17.85;9.07;;;3.70;99.90;;;;;;5099251;28;20020;-71
2022/11/18 13:34:54;;;;;;;25.38;11.68;;;3.70;99.90;;;;;;5098593;28;20553;-71
2022/11/18 13:37:33;;;;;;;12.82;6.18;;;3.70;99.90;;;;;;5098894;28;20032;-71
2022/11/18 13:40:01;;;;;;;10.65;5.68;;;3.70;99.90;;;;;;5099119;28;20028;-71
2022/11/18 13:42:30;;;;;;;13.52;6.55;;;3.60;99.90;;;;;;5099160;28;20291;-71
2022/11/18 13:44:59;;;;;;;15.80;6.57;;;3.60;99.90;;;;;;5098706;28;20027;-71
2022/11/18 13:47:36;;;;;;;12.10;6.03;;;3.60;99.90;;;;;;5098812;28;20028;-70
2022/11/18 13:50:27;;;;;;;11.18;5.97;;;3.50;99.90;;;;;;5099626;28;20106;-71
2022/11/18 13:53:28;;;;;;;11.38;6.00;;;3.50;99.90;;;;;;5098328;28;20412;-71